Time;durP1;ratioP1;P1;durP2;ratioP2;P2;SDS_P1;SDS_P2;PMS_P1;PMS_P2;Temp;Humidity;BMP_temperature;BMP_pressure;BME280_temperature;BME280_humidity;BME280_pressure;Samples;Min_cycle;Max_cycle;Signal;HPM_P1;HPM_P2
2022/03/03 00:01:05;;;;;;;36.22;18.90;;;;;;;10.08;79.50;101293.31;7387977;19;20041;-81
2022/03/03 00:03:32;;;;;;;38.65;19.27;;;;;;;10.13;79.81;101285.00;7387716;19;20392;-80
2022/03/03 00:05:59;;;;;;;39.65;19.00;;;;;;;10.09;79.65;101281.00;7387113;19;20126;-81
2022/03/03 00:08:26;;;;;;;40.75;18.92;;;;;;;10.07;79.01;101280.31;7390489;19;20021;-80
2022/03/03 00:10:55;;;;;;;37.75;17.42;;;;;;;10.04;78.96;101276.16;7386884;19;20011;-80
2022/03/03 00:13:22;;;;;;;38.22;17.73;;;;;;;10.06;78.93;101283.88;7389741;19;20049;-80
2022/03/03 00:15:49;;;;;;;33.60;16.52;;;;;;;10.07;79.33;101269.78;7388031;19;20037;-81
2022/03/03 00:18:16;;;;;;;35.28;16.85;;;;;;;10.09;79.48;101270.50;7387156;19;20029;-82
2022/03/03 00:20:43;;;;;;;37.22;16.73;;;;;;;10.07;78.70;101262.72;7385087;19;20031;-79
2022/03/03 00:23:10;;;;;;;35.67;16.60;;;;;;;10.06;79.20;101258.44;7391938;19;20007;-81
2022/03/03 00:25:37;;;;;;;37.08;17.50;;;;;;;10.07;79.89;101252.22;7387790;19;20347;-81
2022/03/03 00:28:05;;;;;;;38.63;18.83;;;;;;;10.09;79.72;101252.09;7390441;19;20033;-80
2022/03/03 00:30:31;;;;;;;37.67;17.58;;;;;;;10.11;79.08;101252.75;7385745;19;20450;-80
2022/03/03 00:32:59;;;;;;;35.20;18.17;;;;;;;10.10;78.24;101251.97;7386744;19;20014;-81
2022/03/03 00:35:26;;;;;;;41.45;19.50;;;;;;;10.12;79.48;101257.06;7388654;19;20007;-81
2022/03/03 00:37:52;;;;;;;33.75;16.45;;;;;;;10.12;79.54;101260.50;7386904;19;20028;-82
2022/03/03 00:40:20;;;;;;;47.50;21.50;;;;;;;10.12;79.57;101262.31;7386586;19;20015;-80
2022/03/03 00:42:46;;;;;;;42.95;18.02;;;;;;;10.08;78.17;101263.56;7386387;19;20134;-80
2022/03/03 00:45:13;;;;;;;41.03;19.88;;;;;;;10.11;79.59;101253.59;7388127;19;20483;-80
2022/03/03 00:47:40;;;;;;;41.08;19.20;;;;;;;10.13;80.79;101256.09;7385667;19;20440;-80
2022/03/03 00:50:08;;;;;;;45.97;22.27;;;;;;;10.09;79.44;101254.72;7392790;19;20011;-81
2022/03/03 00:52:35;;;;;;;43.80;21.48;;;;;;;10.09;80.05;101249.47;7390659;19;20042;-80
2022/03/03 00:55:02;;;;;;;40.08;18.90;;;;;;;10.06;79.21;101244.47;7385276;19;20429;-82
2022/03/03 00:57:30;;;;;;;39.30;16.65;;;;;;;10.04;78.37;101236.72;7388777;19;20372;-80
2022/03/03 00:59:57;;;;;;;42.50;19.20;;;;;;;10.05;79.38;101240.19;7386751;19;20325;-80
2022/03/03 01:02:24;;;;;;;36.60;16.88;;;;;;;10.04;79.53;101234.09;7387177;19;20150;-82
2022/03/03 01:04:52;;;;;;;38.67;17.83;;;;;;;10.03;78.96;101234.22;7388567;19;20018;-80
2022/03/03 01:07:19;;;;;;;34.67;16.67;;;;;;;10.04;79.07;101246.41;7385953;19;20454;-81
2022/03/03 01:09:46;;;;;;;36.28;17.15;;;;;;;10.04;78.00;101238.53;7388215;19;20090;-80
2022/03/03 01:12:13;;;;;;;36.17;17.73;;;;;;;10.02;78.29;101236.03;7386490;19;20467;-81
2022/03/03 01:14:39;;;;;;;38.92;17.42;;;;;;;10.02;78.64;101233.41;7387460;19;20154;-81
2022/03/03 01:17:07;;;;;;;33.83;16.15;;;;;;;10.03;77.40;101236.88;7383834;19;20021;-80
2022/03/03 01:19:34;;;;;;;41.85;18.88;;;;;;;10.02;77.77;101232.56;7386506;19;20126;-82
2022/03/03 01:22:01;;;;;;;38.08;17.08;;;;;;;10.03;78.37;101235.06;7388969;19;20018;-80
2022/03/03 01:24:27;;;;;;;38.22;17.90;;;;;;;10.02;77.48;101230.78;7385130;19;20014;-81
2022/03/03 01:26:54;;;;;;;38.08;16.95;;;;;;;9.98;77.91;101215.41;7386533;19;20334;-81
2022/03/03 01:29:21;;;;;;;45.05;20.02;;;;;;;9.98;77.98;101211.00;7385817;19;20479;-80
2022/03/03 01:31:48;;;;;;;43.42;20.05;;;;;;;10.02;78.84;101222.88;7386091;19;20015;-81
2022/03/03 01:34:15;;;;;;;40.58;19.25;;;;;;;10.01;77.45;101212.50;7386790;19;20014;-80
2022/03/03 01:36:43;;;;;;;41.95;20.02;;;;;;;10.06;78.90;101221.63;7387421;19;20327;-80
2022/03/03 01:39:10;;;;;;;41.65;20.05;;;;;;;10.07;79.23;101219.84;7389098;19;20014;-82
2022/03/03 01:41:40;;;;;;;38.95;18.83;;;;;;;10.06;77.88;101221.63;7382619;19;20038;-81
2022/03/03 01:44:07;;;;;;;37.97;17.35;;;;;;;10.03;78.13;101216.66;7387092;19;20558;-81
2022/03/03 01:46:34;;;;;;;43.97;19.13;;;;;;;10.05;78.98;101217.38;7383382;19;20025;-82
2022/03/03 01:49:01;;;;;;;40.47;18.50;;;;;;;10.04;78.40;101212.25;7386615;19;20007;-81
2022/03/03 01:51:28;;;;;;;39.20;17.77;;;;;;;10.00;78.59;101206.44;7386584;19;20042;-81
2022/03/03 01:53:55;;;;;;;33.33;16.35;;;;;;;9.95;77.30;101194.69;7389089;19;20436;-81
2022/03/03 01:56:22;;;;;;;40.97;18.17;;;;;;;9.98;77.86;101197.03;7386885;19;20010;-81
2022/03/03 01:58:50;;;;;;;38.15;18.27;;;;;;;9.99;78.07;101189.00;7387688;19;20007;-80
2022/03/03 02:01:16;;;;;;;36.00;17.10;;;;;;;9.95;77.32;101189.44;7383021;19;20031;-81
2022/03/03 02:03:44;;;;;;;40.10;17.85;;;;;;;9.93;77.65;101186.09;7382643;19;20039;-81
2022/03/03 02:06:10;;;;;;;40.83;16.60;;;;;;;9.91;77.90;101186.22;7383460;19;20007;-80
2022/03/03 02:08:37;;;;;;;37.30;18.38;;;;;;;9.90;77.60;101179.34;7389882;19;20051;-80
2022/03/03 02:11:05;;;;;;;52.40;25.27;;;;;;;9.92;78.65;101180.00;7382802;19;20011;-79
2022/03/03 02:13:32;;;;;;;34.45;16.63;;;;;;;9.96;79.07;101164.78;7385637;19;20018;-80
2022/03/03 02:15:58;;;;;;;40.95;19.67;;;;;;;9.94;78.04;101162.31;7381176;19;20074;-80
2022/03/03 02:18:25;;;;;;;37.10;17.52;;;;;;;9.95;78.39;101160.50;7382670;19;20014;-80
2022/03/03 02:20:52;;;;;;;42.97;20.95;;;;;;;9.93;78.00;101160.66;7382767;19;20025;-80
2022/03/03 02:23:19;;;;;;;42.28;18.67;;;;;;;9.90;78.00;101160.94;7385958;19;20015;-81
2022/03/03 02:25:46;;;;;;;38.08;17.13;;;;;;;9.92;77.38;101158.97;7382552;19;20007;-80
2022/03/03 02:28:13;;;;;;;32.88;16.23;;;;;;;9.91;77.43;101159.09;7389182;19;20015;-80
2022/03/03 02:30:40;;;;;;;34.40;15.73;;;;;;;9.88;77.11;101161.06;7385904;19;20126;-82
2022/03/03 02:33:07;;;;;;;55.80;26.75;;;;;;;9.84;77.13;101159.69;7382159;19;20351;-81
2022/03/03 02:35:35;;;;;;;40.45;19.52;;;;;;;9.88;79.29;101158.44;7384058;19;20006;-80
2022/03/03 02:38:02;;;;;;;37.53;18.00;;;;;;;9.87;78.57;101162.03;7384614;19;20475;-79
2022/03/03 02:40:29;;;;;;;40.92;19.55;;;;;;;9.87;78.43;101154.16;7381857;19;20018;-80
2022/03/03 02:42:56;;;;;;;34.55;17.30;;;;;;;9.83;78.12;101149.31;7384196;19;20069;-80
2022/03/03 02:45:23;;;;;;;39.90;18.90;;;;;;;9.83;78.13;101150.16;7387136;19;20018;-81
2022/03/03 02:47:51;;;;;;;40.70;19.77;;;;;;;9.81;78.49;101146.81;7380282;19;20050;-80
2022/03/03 02:50:24;;;;;;;43.05;19.95;;;;;;;9.84;79.39;101143.09;7388140;19;20423;-80
2022/03/03 02:52:50;;;;;;;;;;;;;;;9.83;78.79;101142.25;7385699;19;20114;-81
2022/03/03 02:55:18;;;;;;;37.05;17.70;;;;;;;9.80;79.31;101139.09;7394019;19;19914;-80
2022/03/03 03:00:26;;;;;;;40.70;19.20;;;;;;;9.77;78.66;101136.72;7393540;19;20027;-80
2022/03/03 03:02:53;;;;;;;;;;;;;;;9.80;78.50;101133.84;7393849;19;20022;-82
2022/03/03 03:05:21;;;;;;;38.17;18.58;;;;;;;9.76;79.75;101125.38;7393497;19;19944;-81
2022/03/03 03:07:49;;;;;;;47.90;21.40;;;;;;;9.75;79.43;101115.84;7390831;19;20017;-82
2022/03/03 03:10:15;;;;;;;40.65;20.25;;;;;;;9.78;80.16;101118.22;7394491;19;20018;-82
2022/03/03 03:12:42;;;;;;;44.58;21.33;;;;;;;9.77;80.04;101124.41;7389328;19;20018;-81
2022/03/03 03:15:09;;;;;;;43.85;19.02;;;;;;;9.77;79.83;101110.44;7391600;19;20002;-81
2022/03/03 03:17:36;;;;;;;51.17;23.90;;;;;;;9.80;78.78;101112.81;7388807;19;20033;-81
2022/03/03 03:20:06;;;;;;;37.80;18.50;;;;;;;9.79;79.63;101098.84;7388906;19;20007;-82
2022/03/03 03:22:34;;;;;;;39.75;17.50;;;;;;;9.77;79.12;101102.56;7390103;19;20059;-81
2022/03/03 03:25:04;;;;;;;37.95;17.77;;;;;;;9.78;78.91;101104.22;7389139;19;20018;-80
2022/03/03 03:27:31;;;;;;;36.45;16.85;;;;;;;9.79;79.48;101098.84;7389809;19;20022;-82
2022/03/03 03:29:58;;;;;;;36.25;16.77;;;;;;;9.77;78.80;101095.53;7390033;19;20010;-81
2022/03/03 03:32:25;;;;;;;35.33;17.42;;;;;;;9.80;79.50;101092.59;7387530;19;20021;-80
2022/03/03 03:34:52;;;;;;;37.83;18.00;;;;;;;9.81;79.48;101088.16;7390016;19;20145;-81
2022/03/03 03:37:18;;;;;;;37.08;18.45;;;;;;;9.78;78.90;101088.47;7392029;19;20455;-81
2022/03/03 03:39:45;;;;;;;37.28;17.02;;;;;;;9.78;78.34;101077.97;7391864;19;20272;-81
2022/03/03 03:42:12;;;;;;;50.85;24.73;;;;;;;9.75;78.02;101086.13;7388289;19;20033;-80
2022/03/03 03:44:39;;;;;;;41.67;18.35;;;;;;;9.77;79.41;101074.50;7393265;19;20047;-80
2022/03/03 03:47:07;;;;;;;37.75;17.13;;;;;;;9.80;78.48;101076.03;7387271;19;20045;-81
2022/03/03 03:49:33;;;;;;;39.08;18.00;;;;;;;9.83;80.14;101084.44;7390499;19;20015;-81
2022/03/03 03:52:01;;;;;;;38.22;17.95;;;;;;;9.80;79.18;101074.19;7388722;19;20042;-80
2022/03/03 03:54:27;;;;;;;37.17;18.02;;;;;;;9.74;78.62;101069.53;7390024;19;20011;-81
2022/03/03 03:56:54;;;;;;;41.00;17.35;;;;;;;9.76;78.62;101067.56;7390020;19;20380;-81
2022/03/03 03:59:21;;;;;;;37.30;16.73;;;;;;;9.75;78.24;101058.03;7389348;19;20130;-81
2022/03/03 04:01:48;;;;;;;42.58;18.42;;;;;;;9.77;79.53;101057.91;7385847;19;20182;-81
2022/03/03 04:04:16;;;;;;;38.08;17.10;;;;;;;9.76;79.46;101061.50;7392457;19;20554;-80
2022/03/03 04:06:43;;;;;;;48.15;22.38;;;;;;;9.71;78.46;101047.94;7392645;19;20025;-80
2022/03/03 04:09:09;;;;;;;41.30;19.10;;;;;;;9.73;80.54;101049.47;7392861;19;20011;-81
2022/03/03 04:11:36;;;;;;;40.45;19.75;;;;;;;9.73;79.89;101051.28;7387087;19;20011;-81
2022/03/03 04:14:03;;;;;;;53.78;24.40;;;;;;;9.71;80.18;101045.31;7390337;19;20486;-80
2022/03/03 04:16:31;;;;;;;52.92;25.23;;;;;;;9.70;80.39;101036.63;7386497;19;20011;-81
2022/03/03 04:18:58;;;;;;;44.30;19.50;;;;;;;9.71;81.01;101042.69;7388551;19;20137;-81
2022/03/03 04:21:24;;;;;;;50.22;21.13;;;;;;;9.72;80.49;101044.34;7388259;19;20018;-81
2022/03/03 04:23:51;;;;;;;40.20;17.85;;;;;;;9.73;80.32;101049.47;7390958;19;20023;-82
2022/03/03 04:26:18;;;;;;;36.13;17.35;;;;;;;9.72;79.60;101045.19;7388314;19;20015;-81
2022/03/03 04:28:45;;;;;;;50.60;22.92;;;;;;;9.74;80.21;101052.94;7387928;19;20017;-80
2022/03/03 04:31:12;;;;;;;44.42;19.75;;;;;;;9.74;80.51;101051.16;7389434;19;20372;-80
2022/03/03 04:33:39;;;;;;;45.40;20.75;;;;;;;9.76;80.74;101050.97;7386578;19;20030;-81
2022/03/03 04:36:06;;;;;;;38.30;18.40;;;;;;;9.77;79.93;101048.22;7390978;19;20014;-81
2022/03/03 04:38:33;;;;;;;40.60;18.02;;;;;;;9.77;79.12;101050.00;7390226;19;20408;-80
2022/03/03 04:41:00;;;;;;;41.15;21.00;;;;;;;9.79;79.59;101054.19;7385806;19;20015;-80
2022/03/03 04:43:27;;;;;;;49.70;24.95;;;;;;;9.82;80.35;101047.78;7385475;19;20010;-80
2022/03/03 04:45:54;;;;;;;45.42;19.63;;;;;;;9.78;79.97;101041.16;7388283;19;20337;-80
2022/03/03 04:48:29;;;;;;;47.05;21.20;;;;;;;9.78;79.55;101036.75;7386715;19;20415;-82
2022/03/03 04:50:57;;;;;;;40.38;19.08;;;;;;;9.82;80.53;101039.91;7387094;19;20400;-81
2022/03/03 04:53:27;;;;;;;40.13;18.60;;;;;;;9.81;79.98;101043.50;7388934;19;20022;-81
2022/03/03 04:55:54;;;;;;;40.75;18.35;;;;;;;9.77;79.83;101035.09;7384806;19;20007;-80
2022/03/03 04:58:21;;;;;;;38.42;18.35;;;;;;;9.77;80.23;101047.38;7388681;19;20011;-82
2022/03/03 05:00:48;;;;;;;44.92;22.13;;;;;;;9.79;81.11;101046.28;7384441;19;20019;-81
2022/03/03 05:03:15;;;;;;;41.90;19.05;;;;;;;9.81;80.98;101043.50;7385201;19;20007;-81
2022/03/03 05:05:42;;;;;;;39.88;18.88;;;;;;;9.78;80.41;101033.28;7385582;19;20007;-81
2022/03/03 05:08:09;;;;;;;43.10;19.77;;;;;;;9.79;80.66;101035.78;7388792;19;20010;-81
2022/03/03 05:10:37;;;;;;;39.33;18.10;;;;;;;9.75;80.86;101031.75;7389284;19;20041;-80
2022/03/03 05:13:03;;;;;;;49.47;24.67;;;;;;;9.73;81.09;101033.72;7386513;19;20448;-80
2022/03/03 05:15:30;;;;;;;42.83;20.58;;;;;;;9.76;81.74;101040.47;7387836;19;20021;-81
2022/03/03 05:17:58;;;;;;;45.40;18.30;;;;;;;9.73;81.17;101044.22;7383156;19;20070;-81
2022/03/03 05:20:25;;;;;;;41.50;19.00;;;;;;;9.75;82.06;101044.91;7385792;19;20051;-82
2022/03/03 05:22:52;;;;;;;38.33;17.50;;;;;;;9.74;81.85;101048.53;7385598;19;20324;-82
2022/03/03 05:25:19;;;;;;;44.35;19.95;;;;;;;9.73;82.00;101048.66;7386981;19;20018;-81
2022/03/03 05:27:46;;;;;;;43.05;18.95;;;;;;;9.75;82.45;101046.72;7386027;19;20107;-81
2022/03/03 05:30:12;;;;;;;39.70;18.77;;;;;;;9.74;82.12;101045.06;7385805;19;20014;-81
2022/03/03 05:32:39;;;;;;;43.88;20.55;;;;;;;9.73;82.14;101053.91;7385174;19;20463;-80
2022/03/03 05:35:07;;;;;;;47.05;22.25;;;;;;;9.77;83.41;101042.97;7383954;19;20026;-80
2022/03/03 05:37:34;;;;;;;43.88;20.40;;;;;;;9.77;82.87;101050.00;7385690;19;20475;-81
2022/03/03 05:40:02;;;;;;;39.90;17.17;;;;;;;9.73;82.89;101043.41;7386263;19;20003;-80
2022/03/03 05:42:31;;;;;;;44.97;20.45;;;;;;;9.71;83.43;101042.69;7384231;19;20017;-81
2022/03/03 05:44:58;;;;;;;45.80;20.42;;;;;;;9.74;83.99;101045.06;7389702;19;20021;-80
2022/03/03 05:47:28;;;;;;;39.80;19.10;;;;;;;9.77;84.01;101034.25;7382512;19;20049;-80
2022/03/03 05:49:56;;;;;;;41.55;21.17;;;;;;;9.78;83.94;101035.91;7389143;19;20011;-80
2022/03/03 05:52:23;;;;;;;47.15;23.38;;;;;;;9.76;83.92;101037.84;7386952;19;20015;-81
2022/03/03 05:54:50;;;;;;;41.90;20.17;;;;;;;9.76;84.06;101038.69;7384855;19;20033;-82
2022/03/03 05:57:25;;;;;;;41.42;19.50;;;;;;;9.77;82.58;101039.50;7385204;19;20143;-82
2022/03/03 05:59:56;;;;;;;42.13;17.58;;;;;;;9.74;81.87;101045.91;7383230;19;20035;-81
2022/03/03 06:02:23;;;;;;;39.78;18.02;;;;;;;9.73;82.04;101046.03;7381518;19;20078;-81
2022/03/03 06:04:52;;;;;;;44.95;21.88;;;;;;;9.76;82.53;101040.47;7387014;19;20035;-81
2022/03/03 06:07:29;;;;;;;43.40;20.42;;;;;;;9.76;82.58;101024.72;7382811;19;20011;-82
2022/03/03 06:09:57;;;;;;;42.00;19.60;;;;;;;9.73;81.65;101025.00;7386524;19;20021;-80
2022/03/03 06:12:26;;;;;;;46.00;22.25;;;;;;;9.71;81.61;101038.28;7382949;19;20007;-81
2022/03/03 06:14:55;;;;;;;47.05;20.40;;;;;;;9.74;81.76;101024.03;7385177;19;20011;-81
2022/03/03 06:17:25;;;;;;;43.10;20.67;;;;;;;9.74;80.96;101026.66;7384749;19;20425;-80
2022/03/03 06:19:53;;;;;;;42.60;19.75;;;;;;;9.69;80.89;101032.34;7382744;19;20122;-80
2022/03/03 06:22:20;;;;;;;43.30;19.48;;;;;;;9.75;81.21;101039.63;7380250;19;20034;-81
2022/03/03 06:24:49;;;;;;;47.65;21.35;;;;;;;9.78;81.46;101039.38;7383346;19;20345;-81
2022/03/03 06:27:16;;;;;;;40.22;19.73;;;;;;;9.79;81.09;101038.41;7384509;19;20015;-81
2022/03/03 06:29:42;;;;;;;53.17;24.85;;;;;;;9.81;80.87;101039.06;7392328;19;20011;-80
2022/03/03 06:32:10;;;;;;;41.00;18.85;;;;;;;9.84;80.93;101037.97;7388723;19;20478;-80
2022/03/03 06:34:37;;;;;;;42.33;19.02;;;;;;;9.84;80.68;101036.19;7392411;19;20375;-81
2022/03/03 06:37:05;;;;;;;47.65;24.27;;;;;;;9.85;80.16;101043.06;7397724;19;20026;-80
2022/03/03 06:39:34;;;;;;;47.72;20.70;;;;;;;9.85;79.92;101034.38;7396155;19;20124;-80
2022/03/03 06:42:01;;;;;;;46.80;20.25;;;;;;;9.87;80.40;101041.13;7387500;19;20014;-81
2022/03/03 06:44:28;;;;;;;41.83;21.08;;;;;;;9.93;81.48;101044.16;7393953;19;20011;-81
2022/03/03 06:46:56;;;;;;;44.90;20.40;;;;;;;9.92;80.38;101035.44;7391622;19;20030;-80
2022/03/03 06:49:23;;;;;;;45.97;21.75;;;;;;;9.87;80.97;101038.50;7390601;19;20015;-81
2022/03/03 06:51:54;;;;;;;42.85;20.10;;;;;;;9.85;80.79;101043.06;7389627;19;20011;-81
2022/03/03 06:54:21;;;;;;;51.33;23.40;;;;;;;9.87;80.83;101053.44;7390754;19;20018;-82
2022/03/03 06:56:52;;;;;;;42.65;20.63;;;;;;;9.92;81.26;101047.75;7389428;19;20030;-81
2022/03/03 06:59:22;;;;;;;44.08;21.80;;;;;;;9.93;80.24;101050.25;7393515;19;20480;-81
2022/03/03 07:01:51;;;;;;;44.85;22.10;;;;;;;9.94;81.10;101054.53;7386337;19;20762;-81
2022/03/03 07:04:19;;;;;;;42.40;20.02;;;;;;;9.98;80.58;101047.19;7389129;19;20448;-81
2022/03/03 07:06:47;;;;;;;54.70;25.98;;;;;;;9.99;80.81;101057.56;7389939;19;20010;-81
2022/03/03 07:09:15;;;;;;;51.08;23.63;;;;;;;10.04;81.43;101049.25;7393201;19;20325;-82
2022/03/03 07:11:43;;;;;;;47.47;22.02;;;;;;;10.08;80.86;101043.56;7390720;19;20019;-81
2022/03/03 07:14:10;;;;;;;46.08;21.70;;;;;;;10.08;80.70;101048.00;7389299;19;20037;-81
2022/03/03 07:16:43;;;;;;;49.97;22.42;;;;;;;10.11;80.92;101038.00;7390360;19;20043;-82
2022/03/03 07:19:31;;;;;;;56.03;23.73;;;;;;;10.09;81.27;101029.44;7389491;19;20013;-81
2022/03/03 07:22:09;;;;;;;47.55;21.77;;;;;;;10.11;81.37;101022.22;7389266;19;20030;-81
2022/03/03 07:24:46;;;;;;;58.28;24.35;;;;;;;10.09;81.19;101026.81;7390709;19;20010;-82
2022/03/03 07:27:23;;;;;;;45.75;21.73;;;;;;;10.13;81.85;101029.97;7391161;19;20014;-80
2022/03/03 07:29:56;;;;;;;48.35;23.50;;;;;;;10.12;81.09;101020.44;7390191;19;20009;-81
2022/03/03 07:32:33;;;;;;;49.03;22.95;;;;;;;10.13;81.64;101020.28;7389921;19;20011;-81
2022/03/03 07:35:05;;;;;;;50.97;22.55;;;;;;;10.11;80.97;101019.59;7389608;19;20034;-83
2022/03/03 07:37:39;;;;;;;54.05;26.10;;;;;;;10.20;81.15;101021.41;7391322;19;20015;-80
2022/03/03 07:40:08;;;;;;;49.65;23.98;;;;;;;10.22;81.44;101022.06;7387917;19;21967;-80
2022/03/03 07:42:36;;;;;;;49.60;24.15;;;;;;;10.28;80.52;101020.66;7390906;19;20344;-82
2022/03/03 07:45:05;;;;;;;52.72;24.52;;;;;;;10.35;81.07;101015.66;7391132;19;20010;-82
2022/03/03 07:47:34;;;;;;;48.88;22.73;;;;;;;10.37;80.19;101022.41;7390796;19;20038;-82
2022/03/03 07:50:01;;;;;;;58.17;25.92;;;;;;;10.46;80.64;101023.34;7390233;19;20123;-81
2022/03/03 07:52:30;;;;;;;49.13;22.48;;;;;;;10.48;80.20;101029.28;7391478;19;20489;-81
2022/03/03 07:54:59;;;;;;;46.08;22.77;;;;;;;10.52;79.81;101018.31;7389161;19;20353;-82
2022/03/03 07:57:34;;;;;;;48.67;22.33;;;;;;;10.62;80.40;101031.41;7390809;19;20078;-81
2022/03/03 08:00:07;;;;;;;51.20;23.70;;;;;;;10.66;79.18;101032.78;7387750;19;20014;-80
2022/03/03 08:02:35;;;;;;;62.83;29.75;;;;;;;10.66;79.50;101035.41;7383624;19;20014;-81
2022/03/03 08:05:05;;;;;;;47.42;22.27;;;;;;;10.71;80.19;101027.91;7388407;19;20021;-81
2022/03/03 08:07:40;;;;;;;54.90;25.55;;;;;;;10.76;79.93;101044.09;7388859;19;20422;-81
2022/03/03 08:10:09;;;;;;;51.42;22.52;;;;;;;10.80;79.06;101049.88;7389339;19;20489;-80
2022/03/03 08:12:39;;;;;;;52.72;24.25;;;;;;;10.82;78.51;101048.72;7387780;19;20085;-81
2022/03/03 08:15:08;;;;;;;54.25;25.42;;;;;;;10.85;79.76;101055.50;7389075;19;20007;-81
2022/03/03 08:17:36;;;;;;;46.97;22.98;;;;;;;10.88;79.85;101056.03;7387325;19;20011;-82
2022/03/03 08:20:06;;;;;;;54.20;25.73;;;;;;;10.89;79.41;101055.06;7388939;19;20070;-81
2022/03/03 08:22:34;;;;;;;43.53;21.70;;;;;;;10.88;79.72;101050.78;7385009;19;20022;-81
2022/03/03 08:25:01;;;;;;;47.05;22.83;;;;;;;10.88;79.12;101053.41;7390434;19;20458;-82
2022/03/03 08:27:28;;;;;;;57.90;27.10;;;;;;;10.95;80.11;101058.91;7386960;19;20018;-83
2022/03/03 08:30:00;;;;;;;51.33;23.60;;;;;;;10.99;79.09;101055.00;7388332;19;20511;-80
2022/03/03 08:32:37;;;;;;;53.17;25.08;;;;;;;10.97;79.69;101062.22;7387337;19;20104;-80
2022/03/03 08:35:12;;;;;;;55.75;25.35;;;;;;;10.99;79.60;101057.63;7386293;19;20022;-81
2022/03/03 08:37:43;;;;;;;63.10;32.30;;;;;;;10.98;78.94;101056.78;7395517;19;20030;-82
2022/03/03 08:40:13;;;;;;;52.33;25.00;;;;;;;11.04;80.12;101063.28;7392467;19;20498;-81
2022/03/03 08:42:56;;;;;;;50.28;22.05;;;;;;;11.07;79.11;101057.72;7389366;19;20022;-81
2022/03/03 08:45:34;;;;;;;48.15;22.70;;;;;;;11.05;78.79;101065.75;7385907;19;20017;-81
2022/03/03 08:48:10;;;;;;;54.72;22.80;;;;;;;11.06;78.27;101067.44;7384585;19;20359;-81
2022/03/03 08:50:39;;;;;;;54.45;24.80;;;;;;;11.06;78.35;101067.44;7382345;19;20075;-80
2022/03/03 08:53:08;;;;;;;52.08;23.77;;;;;;;11.11;79.28;101066.97;7389166;19;20018;-82
2022/03/03 08:55:40;;;;;;;46.65;23.40;;;;;;;11.14;78.31;101067.50;7366620;19;20019;-81
2022/03/03 08:58:08;;;;;;;55.92;26.95;;;;;;;11.23;79.60;101064.91;7378584;19;20039;-81
2022/03/03 09:00:36;;;;;;;56.67;26.50;;;;;;;11.32;80.18;101067.50;7387014;19;20190;-81
2022/03/03 09:03:04;;;;;;;50.25;23.35;;;;;;;11.34;79.11;101067.31;7384960;19;20023;-82
2022/03/03 09:05:31;;;;;;;49.22;23.85;;;;;;;11.28;78.80;101068.75;7388706;19;20015;-82
2022/03/03 09:07:58;;;;;;;48.95;22.48;;;;;;;11.33;80.13;101066.50;7384977;19;20289;-82
2022/03/03 09:10:26;;;;;;;54.88;27.67;;;;;;;11.41;82.58;101074.47;7387987;19;20015;-81
2022/03/03 09:12:53;;;;;;;48.83;25.45;;;;;;;11.46;81.44;101069.59;7388566;19;20070;-82
2022/03/03 09:15:20;;;;;;;51.20;25.17;;;;;;;11.43;79.55;101066.41;7394307;19;20014;-81
2022/03/03 09:17:52;;;;;;;55.50;28.02;;;;;;;11.40;79.88;101064.91;7391988;19;20010;-81
2022/03/03 09:20:24;;;;;;;46.30;21.55;;;;;;;11.30;78.79;101068.63;7388744;19;20033;-81
2022/03/03 09:22:52;;;;;;;62.47;28.83;;;;;;;11.28;79.21;101063.50;7386858;19;20141;-79
2022/03/03 09:25:20;;;;;;;51.03;23.92;;;;;;;11.32;79.51;101077.22;7386926;19;20502;-81
2022/03/03 09:27:47;;;;;;;72.68;34.25;;;;;;;11.34;81.32;101076.06;7384925;19;20014;-80
2022/03/03 09:30:14;;;;;;;50.75;24.25;;;;;;;11.31;81.18;101067.63;7390546;19;20013;-81
2022/03/03 09:32:41;;;;;;;58.15;27.27;;;;;;;11.32;81.16;101066.66;7383772;19;20447;-81
2022/03/03 09:35:08;;;;;;;48.92;23.95;;;;;;;11.29;81.50;101067.78;7382881;19;20297;-81
2022/03/03 09:37:35;;;;;;;47.60;23.45;;;;;;;11.32;81.52;101062.22;7386075;19;20014;-81
2022/03/03 09:40:03;;;;;;;50.88;23.33;;;;;;;11.34;80.99;101062.88;7385699;19;20472;-81
2022/03/03 09:42:34;;;;;;;54.95;26.55;;;;;;;11.37;81.40;101061.78;7384523;19;20499;-81
2022/03/03 09:45:06;;;;;;;52.05;23.00;;;;;;;11.37;81.83;101062.59;7384673;19;20031;-80
2022/03/03 09:47:37;;;;;;;49.90;21.88;;;;;;;11.31;81.50;101063.19;7383764;19;20015;-80
2022/03/03 09:50:06;;;;;;;45.47;22.45;;;;;;;11.31;82.42;101059.75;7386077;19;20090;-80
2022/03/03 09:52:34;;;;;;;52.97;24.77;;;;;;;11.29;83.49;101054.63;7383874;19;20095;-80
2022/03/03 09:55:02;;;;;;;62.20;30.27;;;;;;;11.35;83.91;101058.44;7383447;19;20011;-81
2022/03/03 09:57:29;;;;;;;61.30;27.45;;;;;;;11.38;84.61;101056.31;7383738;19;20017;-81
2022/03/03 09:59:57;;;;;;;48.03;23.65;;;;;;;11.35;85.04;101059.28;7379023;19;20357;-82
2022/03/03 10:02:24;;;;;;;53.70;23.25;;;;;;;11.37;85.49;101065.22;7387451;19;20435;-81
2022/03/03 10:04:56;;;;;;;48.15;23.33;;;;;;;11.41;86.33;101060.47;7394310;19;20006;-80
2022/03/03 10:07:25;;;;;;;47.03;22.98;;;;;;;11.39;86.09;101063.25;7392111;19;20014;-80
2022/03/03 10:10:00;;;;;;;51.22;24.33;;;;;;;11.44;86.00;101054.91;7395560;19;20490;-81
2022/03/03 10:12:42;;;;;;;49.55;23.30;;;;;;;11.47;85.30;101057.25;7393503;19;20030;-82
2022/03/03 10:15:18;;;;;;;58.65;27.50;;;;;;;11.49;84.64;101057.91;7393395;19;20006;-80
2022/03/03 10:17:45;;;;;;;53.55;25.65;;;;;;;11.53;85.28;101056.59;7392709;19;20017;-80
2022/03/03 10:20:13;;;;;;;50.03;23.60;;;;;;;11.55;85.26;101052.03;7393025;19;20465;-82
2022/03/03 10:22:43;;;;;;;52.58;27.00;;;;;;;11.65;86.21;101051.94;7390434;19;20064;-82
2022/03/03 10:25:12;;;;;;;49.22;24.05;;;;;;;11.75;86.45;101050.03;7391785;19;20427;-82
2022/03/03 10:27:40;;;;;;;50.10;24.58;;;;;;;11.79;85.48;101054.03;7389585;19;20126;-81
2022/03/03 10:30:09;;;;;;;47.55;23.33;;;;;;;11.87;85.81;101051.47;7391236;19;20028;-80
2022/03/03 10:32:38;;;;;;;61.60;30.20;;;;;;;11.93;85.55;101035.00;7396847;19;20471;-80
2022/03/03 10:35:15;;;;;;;50.22;25.83;;;;;;;12.04;86.15;101034.72;7392109;19;20018;-80
2022/03/03 10:37:44;;;;;;;43.78;23.00;;;;;;;12.12;85.59;101033.94;7390319;19;20007;-81
2022/03/03 10:40:14;;;;;;;50.75;24.83;;;;;;;12.20;85.57;101033.97;7391048;19;20011;-81
2022/03/03 10:42:46;;;;;;;44.80;21.55;;;;;;;12.27;85.17;101030.56;7386843;19;20007;-81
2022/03/03 10:45:22;;;;;;;46.58;23.10;;;;;;;12.34;85.37;101015.72;7393295;19;20336;-80
2022/03/03 10:48:00;;;;;;;47.38;21.63;;;;;;;12.37;85.34;101028.63;7389125;19;20007;-81
2022/03/03 10:50:45;;;;;;;51.03;24.67;;;;;;;12.42;84.89;101036.06;7393796;19;20427;-81
2022/03/03 10:53:17;;;;;;;40.30;19.75;;;;;;;12.43;84.49;101035.06;7389967;19;20036;-80
2022/03/03 10:56:06;;;;;;;51.08;24.02;;;;;;;12.47;85.12;101033.75;7392366;19;20100;-80
2022/03/03 10:58:43;;;;;;;54.45;27.83;;;;;;;12.49;85.11;101037.09;7390012;19;20010;-81
2022/03/03 11:01:11;;;;;;;49.53;24.67;;;;;;;12.59;86.50;101032.50;7388729;19;20434;-79
2022/03/03 11:03:40;;;;;;;42.58;21.13;;;;;;;12.60;85.92;101036.75;7389851;19;20018;-81
2022/03/03 11:06:07;;;;;;;49.85;23.48;;;;;;;12.57;85.04;101036.28;7393950;19;20427;-81
2022/03/03 11:08:35;;;;;;;37.55;18.33;;;;;;;12.63;85.15;101044.38;7392886;19;20028;-81
2022/03/03 11:11:03;;;;;;;43.92;20.35;;;;;;;12.74;85.12;101041.44;7391853;19;20018;-81
2022/03/03 11:13:30;;;;;;;42.47;21.25;;;;;;;12.86;85.37;101040.13;7390176;19;20074;-82
2022/03/03 11:15:57;;;;;;;41.65;18.95;;;;;;;12.97;85.04;101038.16;7388183;19;20015;-80
2022/03/03 11:18:25;;;;;;;43.28;20.05;;;;;;;13.09;84.80;101042.16;7391106;19;20015;-81
2022/03/03 11:20:52;;;;;;;37.47;18.00;;;;;;;13.21;84.31;101043.50;7391969;19;20015;-81
2022/03/03 11:23:20;;;;;;;41.17;17.48;;;;;;;13.33;83.05;101046.66;7391720;19;20219;-81